sensor_id;sensor_type;location;lat;lon;timestamp;pressure;altitude;pressure_sealevel;temperature;humidity
54389;BME280;40975;50.390;8.640;2022-07-22T00:01:03;99536.75;;;16.19;100.00
54389;BME280;40975;50.390;8.640;2022-07-22T00:03:28;99539.06;;;16.22;100.00
54389;BME280;40975;50.390;8.640;2022-07-22T00:05:53;99540.09;;;16.21;100.00
54389;BME280;40975;50.390;8.640;2022-07-22T00:08:19;99543.09;;;16.17;100.00
54389;BME280;40975;50.390;8.640;2022-07-22T00:10:44;99543.59;;;16.21;100.00
54389;BME280;40975;50.390;8.640;2022-07-22T00:13:10;99541.44;;;16.16;100.00
54389;BME280;40975;50.390;8.640;2022-07-22T00:15:35;99537.75;;;16.17;100.00
54389;BME280;40975;50.390;8.640;2022-07-22T00:18:00;99536.88;;;16.17;100.00
54389;BME280;40975;50.390;8.640;2022-07-22T00:20:26;99540.94;;;16.13;100.00
54389;BME280;40975;50.390;8.640;2022-07-22T00:22:51;99538.25;;;16.13;100.00
54389;BME280;40975;50.390;8.640;2022-07-22T00:25:17;99536.78;;;16.10;100.00
54389;BME280;40975;50.390;8.640;2022-07-22T00:27:42;99537.41;;;16.12;100.00
54389;BME280;40975;50.390;8.640;2022-07-22T00:30:08;99530.56;;;16.10;100.00
54389;BME280;40975;50.390;8.640;2022-07-22T00:32:34;99541.56;;;16.23;100.00
54389;BME280;40975;50.390;8.640;2022-07-22T00:34:59;99540.56;;;16.24;100.00
54389;BME280;40975;50.390;8.640;2022-07-22T00:37:25;99535.19;;;16.32;100.00
54389;BME280;40975;50.390;8.640;2022-07-22T00:39:50;99535.84;;;16.35;100.00
54389;BME280;40975;50.390;8.640;2022-07-22T00:42:15;99533.31;;;16.41;100.00
54389;BME280;40975;50.390;8.640;2022-07-22T00:44:41;99524.91;;;16.44;100.00
54389;BME280;40975;50.390;8.640;2022-07-22T00:47:06;99529.91;;;16.47;100.00
54389;BME280;40975;50.390;8.640;2022-07-22T00:49:32;99535.75;;;16.51;100.00
54389;BME280;40975;50.390;8.640;2022-07-22T00:51:57;99529.06;;;16.55;100.00
54389;BME280;40975;50.390;8.640;2022-07-22T00:54:23;99523.81;;;16.62;100.00
54389;BME280;40975;50.390;8.640;2022-07-22T00:56:49;99521.97;;;16.62;100.00
54389;BME280;40975;50.390;8.640;2022-07-22T00:59:14;99523.94;;;16.69;100.00
54389;BME280;40975;50.390;8.640;2022-07-22T01:01:40;99530.75;;;16.79;100.00
54389;BME280;40975;50.390;8.640;2022-07-22T01:04:06;99529.63;;;16.74;100.00
54389;BME280;40975;50.390;8.640;2022-07-22T01:06:31;99528.41;;;16.76;100.00
54389;BME280;40975;50.390;8.640;2022-07-22T01:08:57;99523.88;;;16.77;100.00
54389;BME280;40975;50.390;8.640;2022-07-22T01:11:24;99521.84;;;16.79;100.00
54389;BME280;40975;50.390;8.640;2022-07-22T01:13:50;99506.50;;;16.73;100.00
54389;BME280;40975;50.390;8.640;2022-07-22T01:16:16;99525.88;;;16.83;100.00
54389;BME280;40975;50.390;8.640;2022-07-22T01:18:43;99523.47;;;16.88;100.00
54389;BME280;40975;50.390;8.640;2022-07-22T01:21:09;99518.50;;;16.85;100.00
54389;BME280;40975;50.390;8.640;2022-07-22T01:23:35;99520.16;;;16.86;100.00
54389;BME280;40975;50.390;8.640;2022-07-22T01:26:01;99520.63;;;16.90;100.00
54389;BME280;40975;50.390;8.640;2022-07-22T01:28:26;99518.78;;;16.90;100.00
54389;BME280;40975;50.390;8.640;2022-07-22T01:30:52;99518.59;;;16.92;100.00
54389;BME280;40975;50.390;8.640;2022-07-22T01:33:19;99517.28;;;16.88;100.00
54389;BME280;40975;50.390;8.640;2022-07-22T01:35:45;99521.66;;;16.89;100.00
54389;BME280;40975;50.390;8.640;2022-07-22T01:38:12;99515.59;;;16.95;100.00
54389;BME280;40975;50.390;8.640;2022-07-22T01:40:38;99517.78;;;16.91;100.00
54389;BME280;40975;50.390;8.640;2022-07-22T01:43:04;99511.47;;;16.84;100.00
54389;BME280;40975;50.390;8.640;2022-07-22T01:45:29;99507.63;;;16.78;100.00
54389;BME280;40975;50.390;8.640;2022-07-22T01:47:55;99502.69;;;16.67;100.00
54389;BME280;40975;50.390;8.640;2022-07-22T01:50:20;99504.22;;;16.61;100.00
54389;BME280;40975;50.390;8.640;2022-07-22T01:52:46;99505.56;;;16.57;100.00
54389;BME280;40975;50.390;8.640;2022-07-22T01:55:11;99498.44;;;16.50;100.00
54389;BME280;40975;50.390;8.640;2022-07-22T01:57:37;99501.81;;;16.43;100.00
54389;BME280;40975;50.390;8.640;2022-07-22T02:00:14;99491.63;;;16.39;100.00
54389;BME280;40975;50.390;8.640;2022-07-22T02:02:44;99500.66;;;16.38;100.00
54389;BME280;40975;50.390;8.640;2022-07-22T02:05:09;99496.19;;;16.30;100.00
54389;BME280;40975;50.390;8.640;2022-07-22T02:07:35;99495.72;;;16.26;100.00
54389;BME280;40975;50.390;8.640;2022-07-22T02:10:03;99496.06;;;16.23;100.00
54389;BME280;40975;50.390;8.640;2022-07-22T02:12:29;99489.03;;;16.22;100.00
54389;BME280;40975;50.390;8.640;2022-07-22T02:14:55;99494.91;;;16.17;100.00
54389;BME280;40975;50.390;8.640;2022-07-22T02:17:20;99488.41;;;16.12;100.00
54389;BME280;40975;50.390;8.640;2022-07-22T02:19:45;99495.59;;;16.11;100.00
54389;BME280;40975;50.390;8.640;2022-07-22T02:22:11;99493.94;;;16.10;100.00
54389;BME280;40975;50.390;8.640;2022-07-22T02:24:37;99492.41;;;16.08;100.00
54389;BME280;40975;50.390;8.640;2022-07-22T02:27:02;99502.63;;;16.04;100.00
54389;BME280;40975;50.390;8.640;2022-07-22T02:29:29;99497.28;;;16.04;100.00
54389;BME280;40975;50.390;8.640;2022-07-22T02:31:55;99498.66;;;16.00;100.00
54389;BME280;40975;50.390;8.640;2022-07-22T02:34:20;99495.13;;;15.99;100.00
54389;BME280;40975;50.390;8.640;2022-07-22T02:36:46;99499.00;;;15.97;100.00
54389;BME280;40975;50.390;8.640;2022-07-22T02:39:12;99502.19;;;15.92;100.00
54389;BME280;40975;50.390;8.640;2022-07-22T02:41:38;99505.19;;;15.89;100.00
54389;BME280;40975;50.390;8.640;2022-07-22T02:44:04;99510.91;;;15.86;100.00
54389;BME280;40975;50.390;8.640;2022-07-22T02:46:30;99505.56;;;15.86;100.00
54389;BME280;40975;50.390;8.640;2022-07-22T02:49:01;99503.53;;;15.80;100.00
54389;BME280;40975;50.390;8.640;2022-07-22T02:51:29;99507.56;;;15.84;100.00
54389;BME280;40975;50.390;8.640;2022-07-22T02:53:55;99502.03;;;15.85;100.00
54389;BME280;40975;50.390;8.640;2022-07-22T02:56:21;99510.06;;;15.85;100.00
54389;BME280;40975;50.390;8.640;2022-07-22T02:58:46;99505.38;;;15.88;100.00
54389;BME280;40975;50.390;8.640;2022-07-22T03:01:12;99500.34;;;15.84;100.00
54389;BME280;40975;50.390;8.640;2022-07-22T03:03:46;99501.69;;;15.80;100.00
54389;BME280;40975;50.390;8.640;2022-07-22T03:06:12;99507.88;;;15.81;100.00
54389;BME280;40975;50.390;8.640;2022-07-22T03:08:46;99508.91;;;15.72;100.00
54389;BME280;40975;50.390;8.640;2022-07-22T03:11:13;99510.59;;;15.64;100.00
54389;BME280;40975;50.390;8.640;2022-07-22T03:13:38;99515.59;;;15.59;100.00
54389;BME280;40975;50.390;8.640;2022-07-22T03:16:04;99520.31;;;15.57;100.00
54389;BME280;40975;50.390;8.640;2022-07-22T03:18:29;99520.97;;;15.51;100.00
54389;BME280;40975;50.390;8.640;2022-07-22T03:20:55;99523.47;;;15.44;100.00
54389;BME280;40975;50.390;8.640;2022-07-22T03:23:20;99511.28;;;15.42;100.00
54389;BME280;40975;50.390;8.640;2022-07-22T03:25:47;99519.31;;;15.42;100.00
54389;BME280;40975;50.390;8.640;2022-07-22T03:28:12;99516.63;;;15.33;100.00
54389;BME280;40975;50.390;8.640;2022-07-22T03:30:38;99522.31;;;15.30;100.00
54389;BME280;40975;50.390;8.640;2022-07-22T03:33:03;99527.84;;;15.20;100.00
54389;BME280;40975;50.390;8.640;2022-07-22T03:35:31;99525.16;;;15.20;100.00
54389;BME280;40975;50.390;8.640;2022-07-22T03:37:57;99522.16;;;15.15;100.00
54389;BME280;40975;50.390;8.640;2022-07-22T03:40:24;99518.16;;;15.11;100.00
54389;BME280;40975;50.390;8.640;2022-07-22T03:42:51;99523.81;;;15.08;100.00
54389;BME280;40975;50.390;8.640;2022-07-22T03:45:17;99528.81;;;15.03;100.00
54389;BME280;40975;50.390;8.640;2022-07-22T03:47:43;99531.16;;;14.98;100.00
54389;BME280;40975;50.390;8.640;2022-07-22T03:50:08;99527.81;;;14.96;100.00
54389;BME280;40975;50.390;8.640;2022-07-22T03:52:34;99538.50;;;14.96;100.00
54389;BME280;40975;50.390;8.640;2022-07-22T03:55:04;99538.00;;;15.00;100.00
54389;BME280;40975;50.390;8.640;2022-07-22T03:57:31;99538.69;;;15.02;100.00
54389;BME280;40975;50.390;8.640;2022-07-22T04:00:04;99540.84;;;14.99;100.00
54389;BME280;40975;50.390;8.640;2022-07-22T04:02:39;99547.50;;;15.03;100.00
54389;BME280;40975;50.390;8.640;2022-07-22T04:05:05;99545.53;;;15.05;100.00
54389;BME280;40975;50.390;8.640;2022-07-22T04:07:31;99543.03;;;15.03;100.00
54389;BME280;40975;50.390;8.640;2022-07-22T04:09:57;99538.19;;;15.07;100.00
54389;BME280;40975;50.390;8.640;2022-07-22T04:12:35;99546.19;;;15.07;100.00
54389;BME280;40975;50.390;8.640;2022-07-22T04:15:15;99541.34;;;15.11;100.00
54389;BME280;40975;50.390;8.640;2022-07-22T04:17:40;99547.19;;;15.14;100.00
54389;BME280;40975;50.390;8.640;2022-07-22T04:20:06;99545.69;;;15.12;100.00
54389;BME280;40975;50.390;8.640;2022-07-22T04:22:43;99535.00;;;15.12;100.00
54389;BME280;40975;50.390;8.640;2022-07-22T04:25:09;99533.66;;;15.07;100.00
54389;BME280;40975;50.390;8.640;2022-07-22T04:27:35;99531.34;;;15.13;100.00
54389;BME280;40975;50.390;8.640;2022-07-22T04:30:01;99531.84;;;15.08;100.00
54389;BME280;40975;50.390;8.640;2022-07-22T04:32:27;99528.84;;;15.11;100.00
54389;BME280;40975;50.390;8.640;2022-07-22T04:34:52;99523.31;;;15.13;100.00
54389;BME280;40975;50.390;8.640;2022-07-22T04:37:18;99522.16;;;15.15;100.00
54389;BME280;40975;50.390;8.640;2022-07-22T04:39:43;99529.16;;;15.24;100.00
54389;BME280;40975;50.390;8.640;2022-07-22T04:42:10;99522.50;;;15.29;100.00
54389;BME280;40975;50.390;8.640;2022-07-22T04:44:36;99520.13;;;15.34;100.00
54389;BME280;40975;50.390;8.640;2022-07-22T04:47:02;99517.81;;;15.39;100.00
54389;BME280;40975;50.390;8.640;2022-07-22T04:49:28;99524.81;;;15.48;100.00
54389;BME280;40975;50.390;8.640;2022-07-22T04:51:57;99523.63;;;15.59;100.00
54389;BME280;40975;50.390;8.640;2022-07-22T04:54:33;99530.63;;;15.68;100.00
54389;BME280;40975;50.390;8.640;2022-07-22T04:57:00;99529.09;;;15.82;100.00
54389;BME280;40975;50.390;8.640;2022-07-22T04:59:25;99523.41;;;15.94;100.00
54389;BME280;40975;50.390;8.640;2022-07-22T05:01:51;99519.19;;;16.08;100.00
54389;BME280;40975;50.390;8.640;2022-07-22T05:04:16;99527.84;;;16.26;100.00
54389;BME280;40975;50.390;8.640;2022-07-22T05:06:44;99521.75;;;16.41;100.00
54389;BME280;40975;50.390;8.640;2022-07-22T05:09:09;99516.47;;;16.56;100.00
54389;BME280;40975;50.390;8.640;2022-07-22T05:11:35;99519.56;;;16.76;100.00
54389;BME280;40975;50.390;8.640;2022-07-22T05:14:01;99513.41;;;16.90;100.00
54389;BME280;40975;50.390;8.640;2022-07-22T05:16:28;99512.38;;;17.00;100.00
54389;BME280;40975;50.390;8.640;2022-07-22T05:18:53;99509.81;;;17.06;100.00
54389;BME280;40975;50.390;8.640;2022-07-22T05:21:19;99512.50;;;17.06;100.00
54389;BME280;40975;50.390;8.640;2022-07-22T05:23:45;99511.78;;;17.13;100.00
54389;BME280;40975;50.390;8.640;2022-07-22T05:26:13;99515.41;;;17.20;100.00
54389;BME280;40975;50.390;8.640;2022-07-22T05:28:38;99511.00;;;17.27;100.00
54389;BME280;40975;50.390;8.640;2022-07-22T05:31:04;99517.94;;;17.36;100.00
54389;BME280;40975;50.390;8.640;2022-07-22T05:33:31;99520.56;;;17.45;100.00
54389;BME280;40975;50.390;8.640;2022-07-22T05:36:04;99517.34;;;17.64;100.00
54389;BME280;40975;50.390;8.640;2022-07-22T05:38:36;99520.47;;;17.91;100.00
54389;BME280;40975;50.390;8.640;2022-07-22T05:41:01;99521.56;;;18.12;100.00
54389;BME280;40975;50.390;8.640;2022-07-22T05:43:27;99516.03;;;18.13;100.00
54389;BME280;40975;50.390;8.640;2022-07-22T05:45:53;99527.03;;;18.03;100.00
54389;BME280;40975;50.390;8.640;2022-07-22T05:48:20;99517.81;;;18.06;100.00
54389;BME280;40975;50.390;8.640;2022-07-22T05:50:45;99516.19;;;18.27;100.00
54389;BME280;40975;50.390;8.640;2022-07-22T05:53:12;99520.06;;;18.76;100.00
54389;BME280;40975;50.390;8.640;2022-07-22T05:55:39;99517.72;;;19.53;100.00
54389;BME280;40975;50.390;8.640;2022-07-22T05:58:04;99516.94;;;20.29;100.00
54389;BME280;40975;50.390;8.640;2022-07-22T06:00:30;99520.38;;;20.10;100.00
54389;BME280;40975;50.390;8.640;2022-07-22T06:02:56;99519.34;;;19.76;100.00
54389;BME280;40975;50.390;8.640;2022-07-22T06:05:22;99524.34;;;19.57;100.00
54389;BME280;40975;50.390;8.640;2022-07-22T06:07:48;99517.44;;;19.41;100.00
54389;BME280;40975;50.390;8.640;2022-07-22T06:10:24;99531.94;;;19.47;100.00
54389;BME280;40975;50.390;8.640;2022-07-22T06:12:50;99530.31;;;19.52;100.00
54389;BME280;40975;50.390;8.640;2022-07-22T06:15:15;99536.88;;;19.43;100.00
54389;BME280;40975;50.390;8.640;2022-07-22T06:17:41;99533.81;;;19.46;100.00
54389;BME280;40975;50.390;8.640;2022-07-22T06:20:08;99529.88;;;19.49;100.00
54389;BME280;40975;50.390;8.640;2022-07-22T06:22:34;99526.16;;;19.50;100.00
54389;BME280;40975;50.390;8.640;2022-07-22T06:24:59;99533.00;;;19.52;100.00
54389;BME280;40975;50.390;8.640;2022-07-22T06:27:25;99536.13;;;19.49;100.00
54389;BME280;40975;50.390;8.640;2022-07-22T06:29:52;99531.78;;;19.83;100.00
54389;BME280;40975;50.390;8.640;2022-07-22T06:32:17;99530.28;;;20.44;97.24
54389;BME280;40975;50.390;8.640;2022-07-22T06:34:43;99536.97;;;21.64;90.39
54389;BME280;40975;50.390;8.640;2022-07-22T06:37:08;99525.56;;;22.55;87.17
54389;BME280;40975;50.390;8.640;2022-07-22T06:39:33;99531.56;;;21.84;90.74
54389;BME280;40975;50.390;8.640;2022-07-22T06:42:25;99529.50;;;21.80;92.18
54389;BME280;40975;50.390;8.640;2022-07-22T06:45:09;99529.06;;;21.56;92.06
54389;BME280;40975;50.390;8.640;2022-07-22T06:47:43;99527.78;;;21.18;90.56
54389;BME280;40975;50.390;8.640;2022-07-22T06:50:11;99513.66;;;20.96;93.22
54389;BME280;40975;50.390;8.640;2022-07-22T06:52:40;99520.34;;;21.20;91.35
54389;BME280;40975;50.390;8.640;2022-07-22T06:55:07;99524.69;;;21.28;88.00
54389;BME280;40975;50.390;8.640;2022-07-22T06:57:36;99519.72;;;21.79;86.60
54389;BME280;40975;50.390;8.640;2022-07-22T07:00:04;99516.34;;;22.62;85.50
54389;BME280;40975;50.390;8.640;2022-07-22T07:02:32;99506.38;;;22.95;81.19
54389;BME280;40975;50.390;8.640;2022-07-22T07:04:58;99512.84;;;22.55;80.53
54389;BME280;40975;50.390;8.640;2022-07-22T07:07:23;99507.94;;;23.41;78.22
54389;BME280;40975;50.390;8.640;2022-07-22T07:09:54;99508.97;;;23.66;76.54
54389;BME280;40975;50.390;8.640;2022-07-22T07:12:35;99510.63;;;23.67;75.25
54389;BME280;40975;50.390;8.640;2022-07-22T07:15:05;99504.41;;;23.85;75.58
54389;BME280;40975;50.390;8.640;2022-07-22T07:17:31;99506.78;;;24.18;73.73
54389;BME280;40975;50.390;8.640;2022-07-22T07:19:56;99510.34;;;24.31;72.90
54389;BME280;40975;50.390;8.640;2022-07-22T07:22:22;99505.56;;;24.82;74.04
54389;BME280;40975;50.390;8.640;2022-07-22T07:24:47;99502.72;;;24.58;72.42
54389;BME280;40975;50.390;8.640;2022-07-22T07:27:13;99511.59;;;23.98;75.46
54389;BME280;40975;50.390;8.640;2022-07-22T07:29:40;99507.97;;;23.03;78.43
54389;BME280;40975;50.390;8.640;2022-07-22T07:32:06;99514.78;;;22.28;81.62
54389;BME280;40975;50.390;8.640;2022-07-22T07:34:32;99517.31;;;22.23;82.13
54389;BME280;40975;50.390;8.640;2022-07-22T07:36:57;99505.81;;;21.68;86.38
54389;BME280;40975;50.390;8.640;2022-07-22T07:39:24;99506.38;;;21.97;83.89
54389;BME280;40975;50.390;8.640;2022-07-22T07:41:49;99502.88;;;21.90;84.39
54389;BME280;40975;50.390;8.640;2022-07-22T07:44:16;99490.78;;;23.48;77.62
54389;BME280;40975;50.390;8.640;2022-07-22T07:46:42;99498.63;;;24.98;71.20
54389;BME280;40975;50.390;8.640;2022-07-22T07:49:07;99499.44;;;25.53;67.22
54389;BME280;40975;50.390;8.640;2022-07-22T07:51:33;99495.91;;;25.40;67.02
54389;BME280;40975;50.390;8.640;2022-07-22T07:53:58;99481.28;;;26.06;66.20
54389;BME280;40975;50.390;8.640;2022-07-22T07:56:23;99482.88;;;26.43;64.68
54389;BME280;40975;50.390;8.640;2022-07-22T07:58:49;99479.25;;;26.95;60.58
54389;BME280;40975;50.390;8.640;2022-07-22T08:01:14;99485.91;;;27.95;59.08
54389;BME280;40975;50.390;8.640;2022-07-22T08:03:40;99480.63;;;28.49;54.60
54389;BME280;40975;50.390;8.640;2022-07-22T08:06:06;99482.75;;;29.02;53.84
54389;BME280;40975;50.390;8.640;2022-07-22T08:08:31;99477.97;;;28.82;51.25
54389;BME280;40975;50.390;8.640;2022-07-22T08:11:03;99480.34;;;29.38;49.93
54389;BME280;40975;50.390;8.640;2022-07-22T08:13:43;99484.63;;;29.29;49.06
54389;BME280;40975;50.390;8.640;2022-07-22T08:16:31;99475.47;;;29.45;48.25
54389;BME280;40975;50.390;8.640;2022-07-22T08:18:57;99472.75;;;29.45;47.47
54389;BME280;40975;50.390;8.640;2022-07-22T08:21:23;99475.25;;;29.95;45.51
54389;BME280;40975;50.390;8.640;2022-07-22T08:23:58;99477.06;;;30.48;44.81
54389;BME280;40975;50.390;8.640;2022-07-22T08:26:24;99478.25;;;31.04;44.41
54389;BME280;40975;50.390;8.640;2022-07-22T08:28:49;99468.94;;;30.94;43.07
54389;BME280;40975;50.390;8.640;2022-07-22T08:31:15;99481.53;;;31.06;42.26
54389;BME280;40975;50.390;8.640;2022-07-22T08:33:41;99478.25;;;30.98;42.97
54389;BME280;40975;50.390;8.640;2022-07-22T08:36:07;99477.72;;;31.38;42.36
54389;BME280;40975;50.390;8.640;2022-07-22T08:38:33;99473.41;;;32.13;41.61
54389;BME280;40975;50.390;8.640;2022-07-22T08:41:01;99457.63;;;32.44;39.88
54389;BME280;40975;50.390;8.640;2022-07-22T08:43:27;99458.94;;;33.26;39.11
54389;BME280;40975;50.390;8.640;2022-07-22T08:45:53;99458.16;;;32.91;38.21
54389;BME280;40975;50.390;8.640;2022-07-22T08:48:19;99448.75;;;32.02;40.40
54389;BME280;40975;50.390;8.640;2022-07-22T08:51:13;99450.03;;;32.70;38.19
54389;BME280;40975;50.390;8.640;2022-07-22T08:53:47;99453.31;;;33.42;37.53
54389;BME280;40975;50.390;8.640;2022-07-22T08:56:13;99452.38;;;33.76;37.48
54389;BME280;40975;50.390;8.640;2022-07-22T08:58:40;99454.88;;;34.02;38.26
54389;BME280;40975;50.390;8.640;2022-07-22T09:01:09;99454.78;;;34.07;36.68
54389;BME280;40975;50.390;8.640;2022-07-22T09:03:48;99450.06;;;34.70;34.93
54389;BME280;40975;50.390;8.640;2022-07-22T09:06:20;99450.28;;;33.92;35.98
54389;BME280;40975;50.390;8.640;2022-07-22T09:08:57;99459.28;;;33.73;36.02
54389;BME280;40975;50.390;8.640;2022-07-22T09:11:42;99459.53;;;34.45;34.95
54389;BME280;40975;50.390;8.640;2022-07-22T09:14:26;99456.94;;;34.53;35.00
54389;BME280;40975;50.390;8.640;2022-07-22T09:17:00;99448.25;;;34.22;35.01
54389;BME280;40975;50.390;8.640;2022-07-22T09:19:32;99459.78;;;34.24;35.23
54389;BME280;40975;50.390;8.640;2022-07-22T09:25:31;99462.22;;;34.69;34.61
54389;BME280;40975;50.390;8.640;2022-07-22T09:28:17;99451.13;;;35.07;33.69
54389;BME280;40975;50.390;8.640;2022-07-22T09:31:01;99452.94;;;35.31;33.47
54389;BME280;40975;50.390;8.640;2022-07-22T09:33:31;99448.06;;;34.76;34.18
54389;BME280;40975;50.390;8.640;2022-07-22T09:36:15;99451.44;;;33.86;35.37
54389;BME280;40975;50.390;8.640;2022-07-22T09:38:41;99447.97;;;33.51;38.04
54389;BME280;40975;50.390;8.640;2022-07-22T09:41:07;99445.50;;;34.22;35.69
54389;BME280;40975;50.390;8.640;2022-07-22T09:43:35;99446.50;;;33.88;35.31
54389;BME280;40975;50.390;8.640;2022-07-22T09:46:01;99448.78;;;34.81;34.93
54389;BME280;40975;50.390;8.640;2022-07-22T09:48:47;99441.53;;;35.05;34.42
54389;BME280;40975;50.390;8.640;2022-07-22T09:51:30;99438.41;;;35.25;34.66
54389;BME280;40975;50.390;8.640;2022-07-22T09:54:16;99430.63;;;36.25;32.42
54389;BME280;40975;50.390;8.640;2022-07-22T09:56:42;99442.66;;;36.06;31.91
54389;BME280;40975;50.390;8.640;2022-07-22T09:59:08;99429.88;;;36.10;31.91
54389;BME280;40975;50.390;8.640;2022-07-22T10:01:38;99433.78;;;35.95;33.04
54389;BME280;40975;50.390;8.640;2022-07-22T10:04:06;99427.31;;;36.00;33.27
54389;BME280;40975;50.390;8.640;2022-07-22T10:06:32;99419.78;;;35.78;32.98
54389;BME280;40975;50.390;8.640;2022-07-22T10:08:59;99411.00;;;36.26;32.84
54389;BME280;40975;50.390;8.640;2022-07-22T10:11:24;99402.81;;;35.99;32.51
54389;BME280;40975;50.390;8.640;2022-07-22T10:13:52;99399.34;;;36.16;32.09
54389;BME280;40975;50.390;8.640;2022-07-22T10:16:17;99399.41;;;35.88;32.10
54389;BME280;40975;50.390;8.640;2022-07-22T10:18:45;99397.34;;;34.58;34.36
54389;BME280;40975;50.390;8.640;2022-07-22T10:21:11;99392.19;;;36.15;33.60
54389;BME280;40975;50.390;8.640;2022-07-22T10:24:10;99391.31;;;36.05;33.22
54389;BME280;40975;50.390;8.640;2022-07-22T10:26:53;99381.22;;;36.23;32.82
54389;BME280;40975;50.390;8.640;2022-07-22T10:34:40;99380.69;;;35.29;34.32
54389;BME280;40975;50.390;8.640;2022-07-22T10:40:20;99380.09;;;35.18;33.88
54389;BME280;40975;50.390;8.640;2022-07-22T10:43:08;99376.63;;;35.54;34.03
54389;BME280;40975;50.390;8.640;2022-07-22T10:48:03;99376.69;;;33.54;35.78
54389;BME280;40975;50.390;8.640;2022-07-22T10:53:45;99377.31;;;33.51;35.59
54389;BME280;40975;50.390;8.640;2022-07-22T10:56:06;99376.66;;;33.35;38.30
54389;BME280;40975;50.390;8.640;2022-07-22T11:00:58;99373.00;;;33.64;35.71
54389;BME280;40975;50.390;8.640;2022-07-22T11:03:24;99371.81;;;33.51;37.58
54389;BME280;40975;50.390;8.640;2022-07-22T11:05:52;99356.03;;;33.32;37.71
54389;BME280;40975;50.390;8.640;2022-07-22T11:08:18;99363.44;;;32.44;39.28
54389;BME280;40975;50.390;8.640;2022-07-22T11:10:48;99361.19;;;32.85;39.11
54389;BME280;40975;50.390;8.640;2022-07-22T11:13:35;99349.56;;;32.19;39.64
54389;BME280;40975;50.390;8.640;2022-07-22T11:16:21;99339.53;;;31.99;40.51
54389;BME280;40975;50.390;8.640;2022-07-22T11:18:56;99346.31;;;32.12;40.25
54389;BME280;40975;50.390;8.640;2022-07-22T11:21:23;99336.50;;;32.06;39.91
54389;BME280;40975;50.390;8.640;2022-07-22T11:23:51;99335.94;;;32.09;41.22
54389;BME280;40975;50.390;8.640;2022-07-22T11:26:20;99330.38;;;31.69;40.66
54389;BME280;40975;50.390;8.640;2022-07-22T11:28:49;99324.16;;;31.48;40.92
54389;BME280;40975;50.390;8.640;2022-07-22T11:31:18;99328.75;;;31.63;40.62
54389;BME280;40975;50.390;8.640;2022-07-22T11:33:46;99321.56;;;31.77;42.74
54389;BME280;40975;50.390;8.640;2022-07-22T11:36:12;99331.84;;;31.46;41.73
54389;BME280;40975;50.390;8.640;2022-07-22T11:38:48;99322.22;;;31.48;41.68
54389;BME280;40975;50.390;8.640;2022-07-22T11:41:17;99326.75;;;30.88;42.58
54389;BME280;40975;50.390;8.640;2022-07-22T11:43:48;99315.22;;;31.11;41.87
54389;BME280;40975;50.390;8.640;2022-07-22T11:46:15;99304.03;;;30.82;43.19
54389;BME280;40975;50.390;8.640;2022-07-22T11:48:42;99311.72;;;30.59;43.68
54389;BME280;40975;50.390;8.640;2022-07-22T11:51:08;99306.97;;;31.06;41.68
54389;BME280;40975;50.390;8.640;2022-07-22T11:53:38;99309.78;;;30.80;43.75
54389;BME280;40975;50.390;8.640;2022-07-22T11:56:06;99302.41;;;30.55;44.89
54389;BME280;40975;50.390;8.640;2022-07-22T11:58:44;99296.34;;;30.32;44.46
54389;BME280;40975;50.390;8.640;2022-07-22T12:01:13;99291.38;;;31.01;43.86
54389;BME280;40975;50.390;8.640;2022-07-22T12:03:42;99296.75;;;31.43;42.53
54389;BME280;40975;50.390;8.640;2022-07-22T12:06:11;99293.88;;;30.93;41.89
54389;BME280;40975;50.390;8.640;2022-07-22T12:08:42;99294.41;;;31.00;43.00
54389;BME280;40975;50.390;8.640;2022-07-22T12:11:09;99296.59;;;31.13;42.49
54389;BME280;40975;50.390;8.640;2022-07-22T12:13:35;99287.41;;;31.44;41.00
54389;BME280;40975;50.390;8.640;2022-07-22T12:16:16;99291.91;;;31.04;42.27
54389;BME280;40975;50.390;8.640;2022-07-22T12:18:42;99297.75;;;30.66;42.23
54389;BME280;40975;50.390;8.640;2022-07-22T12:21:07;99290.38;;;30.56;43.24
54389;BME280;40975;50.390;8.640;2022-07-22T12:23:33;99285.41;;;30.79;41.37
54389;BME280;40975;50.390;8.640;2022-07-22T12:26:00;99286.22;;;30.90;43.78
54389;BME280;40975;50.390;8.640;2022-07-22T12:28:26;99274.41;;;30.94;43.40
54389;BME280;40975;50.390;8.640;2022-07-22T12:30:54;99276.88;;;31.01;41.50
54389;BME280;40975;50.390;8.640;2022-07-22T12:33:20;99273.34;;;30.85;41.66
54389;BME280;40975;50.390;8.640;2022-07-22T12:36:06;99266.25;;;30.63;42.49
54389;BME280;40975;50.390;8.640;2022-07-22T12:38:33;99272.28;;;30.19;43.34
54389;BME280;40975;50.390;8.640;2022-07-22T12:41:21;99271.44;;;30.80;43.90
54389;BME280;40975;50.390;8.640;2022-07-22T12:43:46;99268.97;;;30.79;43.08
54389;BME280;40975;50.390;8.640;2022-07-22T12:46:11;99265.41;;;30.78;44.99
54389;BME280;40975;50.390;8.640;2022-07-22T12:48:37;99261.31;;;30.50;44.52
54389;BME280;40975;50.390;8.640;2022-07-22T12:51:02;99246.84;;;30.23;44.70
54389;BME280;40975;50.390;8.640;2022-07-22T12:53:27;99246.28;;;30.58;44.82
54389;BME280;40975;50.390;8.640;2022-07-22T12:55:57;99259.69;;;30.49;43.81
54389;BME280;40975;50.390;8.640;2022-07-22T12:58:27;99250.66;;;30.64;45.86
54389;BME280;40975;50.390;8.640;2022-07-22T13:00:56;99243.00;;;30.19;44.59
54389;BME280;40975;50.390;8.640;2022-07-22T13:03:22;99240.81;;;30.11;42.91
54389;BME280;40975;50.390;8.640;2022-07-22T13:05:53;99241.06;;;30.20;43.57
54389;BME280;40975;50.390;8.640;2022-07-22T13:08:19;99232.88;;;30.09;44.57
54389;BME280;40975;50.390;8.640;2022-07-22T13:10:45;99230.69;;;30.12;46.28
54389;BME280;40975;50.390;8.640;2022-07-22T13:13:10;99228.13;;;29.53;45.82
54389;BME280;40975;50.390;8.640;2022-07-22T13:15:37;99226.16;;;29.33;46.24
54389;BME280;40975;50.390;8.640;2022-07-22T13:18:03;99226.31;;;29.11;47.42
54389;BME280;40975;50.390;8.640;2022-07-22T13:20:28;99224.94;;;29.13;47.60